createdAt,value
2023-03-22T00:02:26.471Z,86.30
2023-03-22T00:05:30.367Z,86.30
2023-03-22T00:08:31.947Z,86.20
2023-03-22T00:11:34.134Z,86.00
2023-03-22T00:14:36.155Z,85.80
2023-03-22T00:17:38.186Z,85.40
2023-03-22T00:20:46.638Z,85.00
2023-03-22T00:23:48.270Z,84.50
2023-03-22T00:26:49.907Z,84.10
2023-03-22T00:29:54.520Z,83.80
2023-03-22T00:32:56.083Z,83.70
2023-03-22T00:36:00.704Z,83.40
2023-03-22T00:39:02.287Z,83.30
2023-03-22T00:42:05.790Z,83.50
2023-03-22T00:45:10.264Z,83.40
2023-03-22T00:48:12.537Z,83.40
2023-03-22T00:51:15.427Z,83.20
2023-03-22T00:54:17.342Z,83.20
2023-03-22T00:57:19.010Z,83.20
2023-03-22T01:00:20.812Z,83.20
2023-03-22T01:03:22.589Z,83.10
2023-03-22T01:06:24.187Z,83.20
2023-03-22T01:09:28.804Z,83.40
2023-03-22T01:12:30.681Z,83.40
2023-03-22T01:15:32.742Z,83.50
2023-03-22T01:18:35.590Z,83.70
2023-03-22T01:21:37.220Z,83.70
2023-03-22T01:24:38.818Z,83.80
2023-03-22T01:27:40.507Z,83.90
2023-03-22T01:30:42.662Z,83.70
2023-03-22T01:33:44.459Z,83.70
2023-03-22T01:36:46.158Z,83.80
2023-03-22T01:39:48.115Z,83.80
2023-03-22T01:42:49.696Z,83.80
2023-03-22T01:45:52.813Z,84.00
2023-03-22T01:48:54.572Z,84.00
2023-03-22T01:52:00.794Z,84.10
2023-03-22T01:55:04.464Z,84.30
2023-03-22T01:58:06.684Z,84.30
2023-03-22T02:01:10.970Z,84.30
2023-03-22T02:04:23.309Z,84.50
2023-03-22T02:07:27.902Z,84.50
2023-03-22T02:10:29.648Z,84.50
2023-03-22T02:13:48.006Z,84.60
2023-03-22T02:17:35.433Z,84.70
2023-03-22T02:20:55.825Z,84.70
2023-03-22T02:24:27.833Z,84.60
2023-03-22T02:28:07.969Z,84.70
2023-03-22T02:31:48.803Z,84.90
2023-03-22T02:35:27.669Z,84.90
2023-03-22T02:39:07.240Z,85.20
2023-03-22T02:42:27.548Z,85.40
2023-03-22T02:45:42.207Z,85.50
2023-03-22T02:48:59.840Z,85.40
2023-03-22T02:52:12.308Z,85.30
2023-03-22T02:55:21.062Z,85.10
2023-03-22T02:58:48.150Z,84.80
2023-03-22T03:01:53.141Z,84.90
2023-03-22T03:04:56.945Z,84.70
2023-03-22T03:08:02.361Z,84.80
2023-03-22T03:11:04.168Z,84.70
2023-03-22T03:14:05.748Z,84.50
2023-03-22T03:17:28.804Z,84.60
2023-03-22T03:20:39.763Z,84.50
2023-03-22T03:23:52.997Z,84.50
2023-03-22T03:27:17.633Z,84.80
2023-03-22T03:30:32.769Z,85.00
2023-03-22T03:33:37.782Z,85.10
2023-03-22T03:36:44.471Z,85.20
2023-03-22T03:40:10.850Z,85.40
2023-03-22T03:43:14.043Z,85.50
2023-03-22T03:46:16.267Z,85.80
2023-03-22T03:49:19.112Z,86.00
2023-03-22T03:52:24.428Z,86.00
2023-03-22T03:55:27.576Z,85.90
2023-03-22T03:58:30.595Z,85.90
2023-03-22T04:01:32.187Z,86.00
2023-03-22T04:04:34.636Z,86.20
2023-03-22T04:07:36.814Z,86.20
2023-03-22T04:10:38.773Z,86.30
2023-03-22T04:13:40.462Z,86.40
2023-03-22T04:16:42.008Z,86.50
2023-03-22T04:19:45.611Z,86.50
2023-03-22T04:22:48.839Z,86.60
2023-03-22T04:25:51.788Z,86.50
2023-03-22T04:28:53.365Z,86.50
2023-03-22T04:31:55.003Z,86.50
2023-03-22T04:34:56.543Z,86.50
2023-03-22T04:37:59.186Z,86.40
2023-03-22T04:41:00.726Z,86.40
2023-03-22T04:44:03.296Z,86.50
2023-03-22T04:47:04.976Z,86.60
2023-03-22T04:50:08.185Z,86.50
2023-03-22T04:53:09.810Z,86.60
2023-03-22T04:56:13.347Z,86.50
2023-03-22T04:59:17.742Z,86.70
2023-03-22T05:02:19.395Z,86.90
2023-03-22T05:05:21.006Z,87.20
2023-03-22T05:08:26.692Z,87.20
2023-03-22T05:11:28.317Z,87.40
2023-03-22T05:14:29.874Z,87.50
2023-03-22T05:17:31.433Z,87.70
2023-03-22T05:20:33.030Z,87.90
2023-03-22T05:23:34.623Z,88.10
2023-03-22T05:26:37.978Z,88.20
2023-03-22T05:29:44.722Z,88.30
2023-03-22T05:32:47.341Z,88.30
2023-03-22T05:35:50.421Z,88.20
2023-03-22T05:38:52.355Z,88.50
2023-03-22T05:41:54.094Z,88.50
2023-03-22T05:44:55.752Z,88.50
2023-03-22T05:47:57.345Z,88.60
2023-03-22T05:50:59.044Z,88.70
2023-03-22T05:54:00.934Z,88.60
2023-03-22T05:57:02.481Z,88.40
2023-03-22T06:00:07.229Z,88.50
2023-03-22T06:03:08.911Z,88.50
2023-03-22T06:06:10.806Z,88.50
2023-03-22T06:09:17.643Z,88.60
2023-03-22T06:12:24.473Z,88.80
2023-03-22T06:15:26.142Z,88.80
2023-03-22T06:18:28.370Z,88.60
2023-03-22T06:21:30.340Z,88.50
2023-03-22T06:24:31.912Z,88.20
2023-03-22T06:27:33.856Z,87.80
2023-03-22T06:30:35.527Z,87.80
2023-03-22T06:33:37.445Z,87.20
2023-03-22T06:36:39.307Z,86.90
2023-03-22T06:39:40.963Z,86.60
2023-03-22T06:42:42.529Z,86.30
2023-03-22T06:45:46.821Z,85.70
2023-03-22T06:48:48.463Z,85.20
2023-03-22T06:51:50.255Z,84.90
2023-03-22T06:54:51.831Z,83.80
2023-03-22T06:57:53.428Z,82.40
2023-03-22T07:00:58.055Z,82.20
2023-03-22T07:03:59.677Z,82.20
2023-03-22T07:07:01.309Z,82.50
2023-03-22T07:10:03.090Z,82.30
2023-03-22T07:13:04.771Z,82.40
2023-03-22T07:16:07.157Z,82.40
2023-03-22T07:19:09.053Z,82.90
2023-03-22T07:22:10.711Z,82.70
2023-03-22T07:25:12.748Z,82.80
2023-03-22T07:28:15.322Z,82.70
2023-03-22T07:31:17.496Z,82.00
2023-03-22T07:34:19.067Z,81.70
2023-03-22T07:37:20.759Z,80.70
2023-03-22T07:40:23.103Z,80.20
2023-03-22T07:43:25.388Z,79.90
2023-03-22T07:46:27.141Z,79.20
2023-03-22T07:49:28.882Z,79.00
2023-03-22T07:52:30.665Z,78.20
2023-03-22T07:55:32.249Z,77.90
2023-03-22T07:58:33.875Z,78.00
2023-03-22T08:01:35.534Z,77.60
2023-03-22T08:04:37.587Z,77.00
2023-03-22T08:07:39.227Z,75.80
2023-03-22T08:10:41.076Z,75.70
2023-03-22T08:13:42.827Z,75.20
2023-03-22T08:16:44.774Z,74.40
2023-03-22T08:19:46.481Z,74.30
2023-03-22T08:22:48.352Z,74.10
2023-03-22T08:25:50.681Z,74.20
2023-03-22T08:28:52.317Z,73.90
2023-03-22T08:31:54.120Z,74.20
2023-03-22T08:34:56.011Z,74.00
2023-03-22T08:37:57.765Z,73.50
2023-03-22T08:40:59.367Z,72.50
2023-03-22T08:44:01.006Z,73.00
2023-03-22T08:47:03.265Z,72.20
2023-03-22T08:50:05.488Z,72.20
2023-03-22T08:53:07.133Z,72.20
2023-03-22T08:56:09.545Z,71.90
2023-03-22T08:59:11.160Z,71.90
2023-03-22T09:02:13.013Z,71.20
2023-03-22T09:05:14.762Z,69.70
2023-03-22T09:08:19.417Z,69.40
2023-03-22T09:11:21.769Z,68.80
2023-03-22T09:14:23.480Z,68.50
2023-03-22T09:17:25.138Z,69.00
2023-03-22T09:20:27.242Z,69.00
2023-03-22T09:23:30.274Z,68.80
2023-03-22T09:26:32.035Z,67.60
2023-03-22T09:29:33.998Z,67.90
2023-03-22T09:32:35.858Z,67.10
2023-03-22T09:35:42.553Z,66.70
2023-03-22T09:38:45.254Z,68.20
2023-03-22T09:41:54.336Z,66.10
2023-03-22T09:44:57.355Z,64.40
2023-03-22T09:47:59.739Z,63.50
2023-03-22T09:51:04.561Z,63.60
2023-03-22T09:54:19.579Z,62.00
2023-03-22T09:57:34.884Z,63.80
2023-03-22T10:00:56.992Z,63.30
2023-03-22T10:04:47.181Z,63.00
2023-03-22T10:08:15.856Z,61.40
2023-03-22T10:11:49.054Z,62.70
2023-03-22T10:15:00.246Z,62.30
2023-03-22T10:18:06.163Z,62.70
2023-03-22T10:21:17.266Z,62.80
2023-03-22T10:24:26.124Z,63.70
2023-03-22T10:27:30.580Z,62.50
2023-03-22T10:30:37.769Z,61.80
2023-03-22T10:33:50.344Z,62.70
2023-03-22T10:36:53.161Z,62.70
2023-03-22T10:39:56.645Z,63.30
2023-03-22T10:43:09.790Z,62.90
2023-03-22T10:46:18.619Z,60.00
2023-03-22T10:49:34.076Z,59.90
2023-03-22T10:52:45.272Z,60.10
2023-03-22T10:55:46.998Z,58.30
2023-03-22T10:58:50.417Z,59.80
2023-03-22T11:01:52.680Z,59.10
2023-03-22T11:04:57.212Z,59.00
2023-03-22T11:07:59.013Z,58.80
2023-03-22T11:11:00.929Z,59.30
2023-03-22T11:14:13.082Z,59.00
2023-03-22T11:17:19.645Z,58.20
2023-03-22T11:20:22.063Z,57.50
2023-03-22T11:23:25.246Z,57.10
2023-03-22T11:26:31.297Z,57.10
2023-03-22T11:30:22.607Z,57.40
2023-03-22T11:33:25.861Z,57.90
2023-03-22T11:36:29.224Z,56.80
2023-03-22T11:39:30.907Z,56.10
2023-03-22T11:42:34.529Z,56.80
2023-03-22T11:45:41.018Z,57.50
2023-03-22T11:48:44.820Z,54.40
2023-03-22T11:51:46.616Z,53.80
2023-03-22T11:54:48.910Z,54.90
2023-03-22T11:57:52.002Z,53.70
2023-03-22T12:00:58.660Z,53.40
2023-03-22T12:04:04.234Z,53.30
2023-03-22T12:07:16.602Z,52.80
2023-03-22T12:10:32.272Z,54.50
2023-03-22T12:13:51.239Z,54.20
2023-03-22T12:16:59.453Z,52.90
2023-03-22T12:20:12.728Z,52.70
2023-03-22T12:23:20.082Z,53.30
2023-03-22T12:26:27.751Z,52.20
2023-03-22T12:29:30.484Z,51.50
2023-03-22T12:32:48.788Z,51.80
2023-03-22T12:35:52.555Z,51.20
2023-03-22T12:38:57.035Z,50.20
2023-03-22T12:42:06.287Z,50.60
2023-03-22T12:45:38.110Z,50.20
2023-03-22T12:48:46.640Z,51.00
2023-03-22T12:51:51.652Z,50.90
2023-03-22T12:54:54.094Z,50.70
2023-03-22T12:57:56.692Z,49.60
2023-03-22T13:01:20.881Z,48.40
2023-03-22T13:04:35.934Z,49.00
2023-03-22T13:07:46.610Z,48.90
2023-03-22T13:11:01.284Z,49.60
2023-03-22T13:14:02.897Z,49.20
2023-03-22T13:17:07.456Z,49.70
2023-03-22T13:20:11.818Z,48.60
2023-03-22T13:23:26.994Z,48.80
2023-03-22T13:26:49.448Z,49.20
2023-03-22T13:29:54.003Z,49.60
2023-03-22T13:33:21.158Z,49.20
2023-03-22T13:36:25.059Z,48.00
2023-03-22T13:39:34.453Z,48.00
2023-03-22T13:42:39.816Z,48.40
2023-03-22T13:46:06.836Z,47.80
2023-03-22T13:49:42.677Z,48.50
2023-03-22T13:52:54.378Z,47.40
2023-03-22T13:55:56.333Z,49.10
2023-03-22T13:58:58.580Z,47.20
2023-03-22T14:02:11.983Z,45.80
2023-03-22T14:05:20.719Z,46.40
2023-03-22T14:08:28.312Z,46.10
2023-03-22T14:11:39.183Z,44.70
2023-03-22T14:14:48.795Z,46.10
2023-03-22T14:18:02.105Z,46.50
2023-03-22T14:21:09.331Z,46.40
